Terminal Aerodrome Forecast
Issued by NWS Buffalo, NY

Home | Current Version | Previous Version | Text Only | Print | Product List | Glossary On
Versions: 1 2 3 4 5 6 7 8 9 10 11 12 13 14 15 16 17 18 19 20 21 22 23 24 25 26
000
FTUS41 KBUF 231700
TAFROC
TAF
KROC 231735Z 2318/2418 22012KT P6SM VCSH BKN050 BKN070
     FM232000 16008KT P6SM OVC050
     FM240700 16015G21KT P6SM -RA OVC070 WS020/17050KT
     FM240900 15017KT 6SM -RA OVC040 WS020/17045KT
     FM241300 17019KT P6SM -RA OVC045=

USA.gov is the U.S. government's official web portal to all federal, state and local government web resources and services.